createdAt,value
2023-05-08T00:02:15.271Z,9.00
2023-05-08T00:04:43.429Z,9.50
2023-05-08T00:07:11.489Z,12.50
2023-05-08T00:09:39.515Z,9.00
2023-05-08T00:12:07.699Z,11.00
2023-05-08T00:14:36.352Z,10.00
2023-05-08T00:19:32.207Z,11.00
2023-05-08T00:22:00.077Z,12.00
2023-05-08T00:24:28.044Z,10.00
2023-05-08T00:26:55.920Z,9.00
2023-05-08T00:29:23.992Z,12.00
2023-05-08T00:31:51.931Z,10.00
2023-05-08T00:34:20.022Z,8.50
2023-05-08T00:36:47.885Z,10.00
2023-05-08T00:39:15.760Z,12.00
2023-05-08T00:41:43.650Z,10.00
2023-05-08T00:44:11.596Z,11.00
2023-05-08T00:46:39.752Z,10.00
2023-05-08T00:49:07.680Z,12.00
2023-05-08T00:51:35.591Z,11.00
2023-05-08T00:54:03.780Z,10.00
2023-05-08T00:56:32.452Z,11.50
2023-05-08T00:59:00.324Z,14.00
2023-05-08T01:01:29.232Z,9.00
2023-05-08T01:03:57.441Z,12.67
2023-05-08T01:06:25.542Z,12.00
2023-05-08T01:08:53.421Z,11.00
2023-05-08T01:13:51.506Z,10.33
2023-05-08T01:16:44.197Z,11.50
2023-05-08T01:19:30.860Z,13.00
2023-05-08T01:22:04.419Z,12.33
2023-05-08T01:25:04.718Z,12.00
2023-05-08T01:27:35.732Z,14.00
2023-05-08T01:30:27.027Z,15.00
2023-05-08T01:33:03.117Z,14.00
2023-05-08T01:35:34.850Z,13.50
2023-05-08T01:38:11.053Z,14.00
2023-05-08T01:40:50.080Z,13.00
2023-05-08T01:43:39.269Z,16.33
2023-05-08T01:46:10.877Z,13.50
2023-05-08T01:51:57.987Z,13.00
2023-05-08T01:54:27.085Z,14.50
2023-05-08T01:56:56.115Z,13.00
2023-05-08T01:59:24.141Z,15.00
2023-05-08T02:01:54.380Z,13.00
2023-05-08T02:04:22.582Z,12.00
2023-05-08T02:06:51.586Z,15.00
2023-05-08T02:09:19.424Z,12.50
2023-05-08T02:11:47.307Z,14.00
2023-05-08T02:14:19.862Z,14.00
2023-05-08T02:16:49.099Z,14.00
2023-05-08T02:19:17.227Z,15.50
2023-05-08T02:21:45.981Z,14.00
2023-05-08T02:24:14.132Z,14.67
2023-05-08T02:26:42.644Z,12.00
2023-05-08T02:29:10.769Z,12.00
2023-05-08T02:31:39.069Z,14.00
2023-05-08T02:34:08.166Z,14.00
2023-05-08T02:36:36.727Z,15.00
2023-05-08T02:39:04.750Z,14.00
2023-05-08T02:41:32.913Z,13.50
2023-05-08T02:49:24.422Z,27.00
2023-05-08T02:52:14.307Z,14.00
2023-05-08T02:55:15.289Z,17.00
2023-05-08T02:58:07.012Z,15.00
2023-05-08T03:00:41.495Z,16.50
2023-05-08T03:03:13.955Z,12.50
2023-05-08T03:05:44.757Z,12.00
2023-05-08T03:08:15.654Z,14.50
2023-05-08T03:10:46.027Z,14.00
2023-05-08T03:13:14.153Z,14.00
2023-05-08T03:15:43.556Z,16.00
2023-05-08T03:18:13.926Z,15.00
2023-05-08T03:20:46.535Z,17.00
2023-05-08T03:23:15.599Z,13.00
2023-05-08T03:25:43.652Z,13.33
2023-05-08T03:28:13.331Z,12.00
2023-05-08T03:30:41.672Z,14.00
2023-05-08T03:33:12.379Z,13.50
2023-05-08T03:35:40.531Z,15.00
2023-05-08T03:38:10.750Z,13.00
2023-05-08T03:40:44.661Z,16.00
2023-05-08T03:43:12.833Z,13.67
2023-05-08T03:45:41.233Z,13.00
2023-05-08T03:48:10.110Z,14.00
2023-05-08T03:50:38.472Z,14.50
2023-05-08T03:53:09.081Z,14.00
2023-05-08T03:55:37.273Z,14.00
2023-05-08T03:58:07.633Z,14.00
2023-05-08T04:01:02.906Z,13.00
2023-05-08T04:03:46.588Z,15.00
2023-05-08T04:06:30.692Z,14.00
2023-05-08T04:11:38.666Z,14.00
2023-05-08T04:14:07.836Z,13.00
2023-05-08T04:16:41.491Z,14.00
2023-05-08T04:19:11.766Z,13.00
2023-05-08T04:21:42.364Z,12.00
2023-05-08T04:24:13.203Z,14.00
2023-05-08T04:26:42.208Z,16.00
2023-05-08T04:29:10.589Z,16.00
2023-05-08T04:31:39.515Z,14.00
2023-05-08T04:34:09.247Z,15.00
2023-05-08T04:36:38.109Z,15.00
2023-05-08T04:39:07.146Z,17.00
2023-05-08T04:41:35.610Z,16.50
2023-05-08T04:44:03.792Z,22.00
2023-05-08T04:46:32.346Z,19.00
2023-05-08T04:49:00.386Z,18.00
2023-05-08T04:51:29.901Z,12.00
2023-05-08T04:53:58.359Z,13.00
2023-05-08T04:56:27.063Z,14.50
2023-05-08T05:01:23.778Z,14.00
2023-05-08T05:03:51.939Z,16.50
2023-05-08T05:06:20.017Z,14.00
2023-05-08T05:08:48.086Z,15.00
2023-05-08T05:11:16.635Z,15.00
2023-05-08T05:13:44.600Z,12.00
2023-05-08T05:16:13.609Z,14.00
2023-05-08T05:18:41.880Z,14.50
2023-05-08T05:21:11.554Z,13.00
2023-05-08T05:23:39.569Z,18.00
2023-05-08T05:26:07.887Z,19.00
2023-05-08T05:31:04.881Z,18.50
2023-05-08T05:33:33.521Z,21.00
2023-05-08T05:36:01.882Z,14.00
2023-05-08T05:38:30.403Z,16.00
2023-05-08T05:40:58.590Z,12.50
2023-05-08T05:43:26.866Z,11.67
2023-05-08T05:45:56.497Z,9.00
2023-05-08T05:50:53.014Z,10.00
2023-05-08T05:53:21.164Z,11.00
2023-05-08T05:55:49.154Z,9.50
2023-05-08T05:58:17.442Z,9.00
2023-05-08T06:00:46.346Z,11.00
2023-05-08T06:03:14.873Z,11.00
2023-05-08T06:05:43.940Z,12.50
2023-05-08T06:08:12.114Z,10.00
2023-05-08T06:10:40.045Z,11.00
2023-05-08T06:13:09.107Z,11.00
2023-05-08T06:15:37.094Z,11.00
2023-05-08T06:18:06.301Z,10.00
2023-05-08T06:20:34.647Z,10.00
2023-05-08T06:23:02.614Z,10.00
2023-05-08T06:25:34.122Z,11.00
2023-05-08T06:28:02.445Z,12.50
2023-05-08T06:30:30.775Z,9.00
2023-05-08T06:33:00.434Z,11.00
2023-05-08T06:35:29.244Z,12.00
2023-05-08T06:37:57.518Z,9.00
2023-05-08T06:40:25.650Z,11.00
2023-05-08T06:42:55.082Z,12.00
2023-05-08T06:45:23.065Z,10.50
2023-05-08T06:47:51.027Z,10.00
2023-05-08T06:50:19.314Z,13.00
2023-05-08T06:52:47.347Z,12.50
2023-05-08T06:55:15.491Z,15.00
2023-05-08T06:57:43.329Z,13.00
2023-05-08T07:00:11.780Z,12.50
2023-05-08T07:02:40.012Z,13.50
2023-05-08T07:05:11.200Z,14.00
2023-05-08T07:07:40.136Z,12.67
2023-05-08T07:10:08.795Z,15.00
2023-05-08T07:12:36.696Z,12.00
2023-05-08T07:15:17.806Z,13.00
2023-05-08T07:17:52.946Z,12.00
2023-05-08T07:20:21.789Z,14.50
2023-05-08T07:22:50.650Z,16.00
2023-05-08T07:25:18.461Z,15.00
2023-05-08T07:27:48.480Z,13.50
2023-05-08T07:30:16.514Z,14.00
2023-05-08T07:32:44.993Z,15.00
2023-05-08T07:35:13.893Z,15.00
2023-05-08T07:37:42.155Z,16.00
2023-05-08T07:40:10.618Z,15.00
2023-05-08T07:42:42.156Z,13.50
2023-05-08T07:45:13.031Z,14.00
2023-05-08T07:47:57.563Z,15.00
2023-05-08T07:50:26.038Z,13.00
2023-05-08T07:52:54.569Z,16.00
2023-05-08T07:55:22.719Z,14.00
2023-05-08T07:57:51.659Z,18.00
2023-05-08T08:00:19.609Z,18.00
2023-05-08T08:02:47.583Z,18.00
2023-05-08T08:05:16.055Z,14.50
2023-05-08T08:07:44.293Z,18.00
2023-05-08T08:10:12.625Z,18.50
2023-05-08T08:12:42.196Z,21.00
2023-05-08T08:15:10.406Z,20.00
2023-05-08T08:17:38.354Z,19.50
2023-05-08T08:20:07.074Z,21.00
2023-05-08T08:22:36.650Z,22.00
2023-05-08T08:25:04.700Z,21.50
2023-05-08T08:27:32.575Z,22.00
2023-05-08T08:30:15.171Z,22.00
2023-05-08T08:32:45.681Z,21.00
2023-05-08T08:35:13.972Z,23.50
2023-05-08T08:37:42.661Z,24.00
2023-05-08T08:40:10.735Z,22.00
2023-05-08T08:42:38.810Z,22.00
2023-05-08T08:45:07.506Z,19.00
2023-05-08T08:47:41.371Z,20.50
2023-05-08T08:50:12.832Z,22.50
2023-05-08T08:52:49.209Z,21.00
2023-05-08T08:55:17.614Z,21.67
2023-05-08T08:57:57.659Z,20.00
2023-05-08T09:00:27.147Z,21.50
2023-05-08T09:02:55.038Z,21.00
2023-05-08T09:05:23.872Z,20.50
2023-05-08T09:07:53.878Z,20.00
2023-05-08T09:10:23.033Z,22.00
2023-05-08T09:12:51.075Z,22.00
2023-05-08T09:15:18.937Z,17.50
2023-05-08T09:17:47.008Z,21.00
2023-05-08T09:20:16.001Z,20.00
2023-05-08T09:22:44.556Z,20.00
2023-05-08T09:25:12.688Z,20.00
2023-05-08T09:27:40.939Z,22.00
2023-05-08T09:30:10.650Z,19.50
2023-05-08T09:32:41.286Z,20.00
2023-05-08T09:35:09.616Z,17.00
2023-05-08T09:37:42.142Z,19.00
2023-05-08T09:40:18.059Z,19.00
2023-05-08T09:42:46.998Z,19.33
2023-05-08T09:45:28.263Z,20.00
2023-05-08T09:50:25.243Z,19.00
2023-05-08T09:52:53.097Z,19.00
2023-05-08T09:55:21.125Z,20.00
2023-05-08T09:57:59.087Z,22.00
2023-05-08T10:00:28.121Z,21.00
2023-05-08T10:03:01.520Z,19.00
2023-05-08T10:05:34.836Z,22.00
2023-05-08T10:08:19.860Z,20.00
2023-05-08T10:10:47.969Z,21.00
2023-05-08T10:13:16.100Z,26.00
2023-05-08T10:15:44.967Z,22.00
2023-05-08T10:18:13.010Z,24.00
2023-05-08T10:20:42.489Z,24.00
2023-05-08T10:23:17.785Z,25.50
2023-05-08T10:25:46.811Z,22.00
2023-05-08T10:28:37.938Z,24.00
2023-05-08T10:31:05.992Z,22.50
2023-05-08T10:33:34.800Z,23.00
2023-05-08T10:36:02.722Z,25.00
2023-05-08T10:38:30.907Z,24.50
2023-05-08T10:41:02.374Z,24.00
2023-05-08T10:43:31.302Z,22.00
2023-05-08T10:45:59.342Z,22.00
2023-05-08T10:48:40.325Z,22.00
2023-05-08T10:51:16.817Z,24.00
2023-05-08T10:53:46.804Z,23.50
2023-05-08T10:56:14.669Z,24.00
2023-05-08T10:58:42.692Z,24.00
2023-05-08T11:01:13.815Z,24.00
2023-05-08T11:03:46.579Z,22.00
2023-05-08T11:06:17.326Z,21.00
2023-05-08T11:08:50.134Z,22.00
2023-05-08T11:11:25.150Z,21.00
2023-05-08T11:14:07.751Z,23.50
2023-05-08T11:16:54.045Z,21.50
2023-05-08T11:19:25.456Z,22.00
2023-05-08T11:24:47.289Z,21.00
2023-05-08T11:27:16.049Z,21.00
2023-05-08T11:29:45.072Z,20.00
2023-05-08T11:32:13.033Z,17.00
2023-05-08T11:34:47.582Z,20.00
2023-05-08T11:37:19.880Z,21.50
2023-05-08T11:39:47.923Z,21.00
2023-05-08T11:42:25.118Z,21.00
2023-05-08T11:45:06.425Z,21.00
2023-05-08T11:47:42.018Z,21.00
2023-05-08T11:50:10.827Z,21.00
2023-05-08T11:52:40.517Z,21.00
2023-05-08T11:57:36.876Z,21.00
2023-05-08T12:00:08.680Z,23.00
2023-05-08T12:02:43.518Z,20.00
2023-05-08T12:05:11.833Z,18.50
2023-05-08T12:07:46.730Z,21.00
2023-05-08T12:10:16.632Z,22.00
2023-05-08T12:12:45.451Z,20.00
2023-05-08T12:15:14.514Z,19.00
2023-05-08T12:17:42.606Z,20.00
2023-05-08T12:20:16.046Z,21.00
2023-05-08T12:22:52.872Z,21.00
2023-05-08T12:27:50.116Z,22.00
2023-05-08T12:30:18.573Z,22.00
2023-05-08T12:32:46.889Z,22.50
2023-05-08T12:35:15.848Z,23.50
2023-05-08T12:37:45.012Z,24.00
2023-05-08T12:40:27.196Z,24.00
2023-05-08T12:42:55.151Z,24.00
2023-05-08T12:45:33.341Z,24.00
2023-05-08T12:48:02.790Z,22.00
2023-05-08T12:50:34.622Z,22.75
2023-05-08T12:53:04.571Z,21.00
2023-05-08T12:55:34.094Z,22.00
2023-05-08T12:58:11.993Z,21.50
2023-05-08T13:00:44.874Z,21.00
2023-05-08T13:03:14.282Z,21.50
2023-05-08T13:05:43.789Z,22.00
2023-05-08T13:08:11.926Z,22.00
2023-05-08T13:10:58.016Z,20.00
2023-05-08T13:13:27.634Z,21.00
2023-05-08T13:15:56.149Z,23.00
2023-05-08T13:18:26.767Z,18.00
2023-05-08T13:20:55.534Z,22.00
2023-05-08T13:23:23.636Z,22.00
2023-05-08T13:25:51.781Z,21.00
2023-05-08T13:28:19.777Z,18.00
2023-05-08T13:30:47.737Z,22.00
2023-05-08T13:33:15.883Z,20.00
2023-05-08T13:35:43.720Z,19.50
2023-05-08T13:38:11.511Z,20.00
2023-05-08T13:40:39.587Z,20.50
2023-05-08T13:43:07.473Z,23.50
2023-05-08T13:45:35.691Z,24.00
2023-05-08T13:48:03.708Z,23.50
2023-05-08T13:50:31.798Z,22.00
2023-05-08T13:52:59.786Z,23.00
2023-05-08T13:55:27.745Z,23.00
2023-05-08T13:57:55.697Z,20.00
2023-05-08T14:00:24.449Z,19.00
2023-05-08T14:02:54.548Z,18.00
2023-05-08T14:05:22.667Z,18.00
2023-05-08T14:07:50.644Z,23.00
2023-05-08T14:10:18.565Z,19.00
2023-05-08T14:12:46.908Z,21.50
2023-05-08T14:15:16.016Z,19.00
2023-05-08T14:17:44.253Z,22.00
2023-05-08T14:20:12.376Z,20.00
2023-05-08T14:22:40.383Z,25.00
2023-05-08T14:25:09.041Z,24.00
2023-05-08T14:27:36.937Z,18.00
2023-05-08T14:30:05.843Z,21.00
2023-05-08T14:32:33.890Z,19.00
2023-05-08T14:35:02.021Z,20.00
2023-05-08T14:39:59.461Z,20.00
2023-05-08T14:42:27.390Z,20.50
2023-05-08T14:44:56.099Z,22.00
2023-05-08T14:47:24.189Z,21.00
2023-05-08T14:49:53.772Z,21.50
2023-05-08T14:52:22.236Z,19.00
2023-05-08T14:54:53.573Z,19.00
2023-05-08T14:57:21.605Z,16.00
2023-05-08T14:59:54.856Z,22.00
2023-05-08T15:04:51.891Z,22.00
2023-05-08T15:07:19.813Z,16.00
2023-05-08T15:09:47.990Z,18.00
2023-05-08T15:12:15.915Z,15.00
2023-05-08T15:14:45.189Z,15.50
2023-05-08T15:17:13.177Z,14.00
2023-05-08T15:19:40.995Z,14.00
2023-05-08T15:22:09.141Z,16.00
2023-05-08T15:24:37.093Z,15.00
2023-05-08T15:27:05.037Z,16.50
2023-05-08T15:29:32.949Z,17.00
2023-05-08T15:32:01.277Z,16.00
2023-05-08T15:34:32.315Z,16.67
2023-05-08T15:37:00.793Z,15.00
2023-05-08T15:39:28.776Z,18.00
2023-05-08T15:41:56.554Z,16.50
2023-05-08T15:44:26.569Z,18.00
2023-05-08T15:46:56.748Z,15.00
2023-05-08T15:49:26.087Z,17.67
2023-05-08T15:51:53.960Z,20.00
2023-05-08T15:54:22.056Z,22.00
2023-05-08T15:56:50.020Z,20.50
2023-05-08T15:59:17.803Z,16.50
2023-05-08T16:01:46.945Z,18.00
2023-05-08T16:04:15.620Z,18.00
2023-05-08T16:06:45.560Z,17.00
2023-05-08T16:09:13.365Z,16.50
2023-05-08T16:14:09.304Z,17.00
2023-05-08T16:16:39.948Z,18.50
2023-05-08T16:19:07.799Z,21.00
2023-05-08T16:21:36.172Z,22.00
2023-05-08T16:24:04.348Z,21.00
2023-05-08T16:26:32.404Z,22.00
2023-05-08T16:29:01.509Z,22.50
2023-05-08T16:31:29.387Z,20.00
2023-05-08T16:33:57.343Z,23.00
2023-05-08T16:36:25.215Z,25.00
2023-05-08T16:38:53.117Z,23.50
2023-05-08T16:41:21.560Z,25.67
2023-05-08T16:43:49.490Z,24.00
2023-05-08T16:46:20.768Z,25.00
2023-05-08T16:48:54.597Z,26.00
2023-05-08T16:51:22.552Z,29.00
2023-05-08T16:53:50.455Z,22.50
2023-05-08T16:56:18.570Z,26.00
2023-05-08T16:58:46.566Z,26.00
2023-05-08T17:01:15.156Z,22.00
2023-05-08T17:06:10.794Z,21.00
2023-05-08T17:08:38.779Z,18.00
2023-05-08T17:11:06.633Z,19.00
2023-05-08T17:13:34.512Z,23.00
2023-05-08T17:16:02.704Z,19.00
2023-05-08T17:18:30.583Z,22.50
2023-05-08T17:20:58.353Z,19.00
2023-05-08T17:23:26.224Z,18.50
2023-05-08T17:25:57.656Z,22.00
2023-05-08T17:28:25.692Z,23.00
2023-05-08T17:30:53.654Z,22.00
2023-05-08T17:33:21.784Z,20.00
2023-05-08T17:35:49.748Z,23.00
2023-05-08T17:38:19.798Z,18.00
2023-05-08T17:40:48.038Z,25.50
2023-05-08T17:43:15.940Z,21.50
2023-05-08T17:45:44.354Z,20.00
2023-05-08T17:48:14.761Z,21.50
2023-05-08T17:50:43.625Z,22.00
2023-05-08T17:53:11.738Z,21.50
2023-05-08T17:55:39.752Z,22.50
2023-05-08T17:58:07.599Z,25.00
2023-05-08T18:00:35.553Z,22.50
2023-05-08T18:03:04.248Z,21.50
2023-05-08T18:05:32.408Z,20.50
2023-05-08T18:08:02.021Z,23.00
2023-05-08T18:10:30.108Z,25.00
2023-05-08T18:12:57.963Z,22.50
2023-05-08T18:15:26.374Z,24.00
2023-05-08T18:17:54.378Z,20.00
2023-05-08T18:20:22.448Z,24.50
2023-05-08T18:22:53.754Z,25.00
2023-05-08T18:25:23.631Z,24.00
2023-05-08T18:27:51.903Z,25.00
2023-05-08T18:30:19.766Z,25.00
2023-05-08T18:32:47.616Z,26.00
2023-05-08T18:35:15.557Z,25.00
2023-05-08T18:37:43.514Z,23.00
2023-05-08T18:40:14.206Z,26.00
2023-05-08T18:42:42.321Z,23.00
2023-05-08T18:45:11.462Z,25.00
2023-05-08T18:47:39.722Z,23.00
2023-05-08T18:50:09.378Z,26.00
2023-05-08T18:52:37.256Z,25.50
2023-05-08T18:55:06.244Z,23.00
2023-05-08T18:57:34.229Z,22.00
2023-05-08T19:00:02.454Z,22.00
2023-05-08T19:02:30.761Z,23.00
2023-05-08T19:04:58.957Z,22.00
2023-05-08T19:07:26.793Z,23.00
2023-05-08T19:09:55.566Z,21.50
2023-05-08T19:12:23.576Z,19.00
2023-05-08T19:14:53.148Z,16.00
2023-05-08T19:17:21.222Z,15.00
2023-05-08T19:19:51.882Z,14.50
2023-05-08T19:24:47.561Z,12.50
2023-05-08T19:27:15.359Z,13.50
2023-05-08T19:29:44.400Z,13.50
2023-05-08T19:32:12.191Z,15.00
2023-05-08T19:34:40.058Z,15.50
2023-05-08T19:37:07.819Z,15.00
2023-05-08T19:39:35.769Z,12.00
2023-05-08T19:42:03.804Z,15.00
2023-05-08T19:44:32.806Z,16.50
2023-05-08T19:47:03.045Z,14.00
2023-05-08T19:49:34.057Z,14.00
2023-05-08T19:52:02.952Z,15.50
2023-05-08T19:54:31.706Z,15.00
2023-05-08T19:57:01.290Z,17.00
2023-05-08T19:59:32.091Z,11.00
2023-05-08T20:02:01.481Z,16.00
2023-05-08T20:04:32.302Z,11.00
2023-05-08T20:07:03.191Z,13.00
2023-05-08T20:09:33.173Z,9.00
2023-05-08T20:12:03.990Z,8.00
2023-05-08T20:14:34.037Z,9.00
2023-05-08T20:17:04.053Z,7.00
2023-05-08T20:19:35.530Z,4.50
2023-05-08T20:22:05.263Z,8.00
2023-05-08T20:24:33.956Z,7.00
2023-05-08T20:27:05.599Z,9.00
2023-05-08T20:29:37.320Z,8.00
2023-05-08T20:32:08.447Z,6.33
2023-05-08T20:34:38.705Z,8.00
2023-05-08T20:37:07.268Z,7.00
2023-05-08T20:39:36.680Z,6.50
2023-05-08T20:42:05.228Z,7.00
2023-05-08T20:44:35.417Z,8.50
2023-05-08T20:47:06.989Z,6.00
2023-05-08T20:49:37.427Z,9.00
2023-05-08T20:52:06.615Z,9.00
2023-05-08T20:54:38.804Z,9.00
2023-05-08T20:57:07.772Z,5.00
2023-05-08T20:59:38.823Z,4.00
2023-05-08T21:02:08.260Z,8.00
2023-05-08T21:04:38.416Z,5.67
2023-05-08T21:07:10.730Z,8.00
2023-05-08T21:09:41.106Z,5.00
2023-05-08T21:12:11.330Z,4.00
2023-05-08T21:14:44.716Z,5.00
2023-05-08T21:17:16.112Z,5.00
2023-05-08T21:19:46.890Z,8.00
2023-05-08T21:22:17.687Z,4.00
2023-05-08T21:24:47.582Z,3.00
2023-05-08T21:27:15.629Z,3.00
2023-05-08T21:29:43.434Z,4.00
2023-05-08T21:32:12.829Z,3.00
2023-05-08T21:34:41.525Z,2.00
2023-05-08T21:37:11.212Z,2.00
2023-05-08T21:39:40.797Z,2.00
2023-05-08T21:42:10.060Z,1.00
2023-05-08T21:44:38.207Z,2.00
2023-05-08T21:47:06.422Z,3.00
2023-05-08T21:49:34.497Z,2.00
2023-05-08T21:52:02.623Z,1.00
2023-05-08T21:54:30.585Z,1.00
2023-05-08T21:56:58.422Z,2.00
2023-05-08T21:59:29.920Z,2.00
2023-05-08T22:01:58.846Z,3.00
2023-05-08T22:04:27.076Z,3.00
2023-05-08T22:06:57.968Z,2.00
2023-05-08T22:09:25.989Z,2.00
2023-05-08T22:11:53.828Z,2.00
2023-05-08T22:14:21.910Z,3.00
2023-05-08T22:16:50.023Z,3.00
2023-05-08T22:19:19.431Z,3.00
2023-05-08T22:21:49.965Z,5.00
2023-05-08T22:24:19.298Z,3.00
2023-05-08T22:26:47.385Z,4.00
2023-05-08T22:29:17.075Z,3.00
2023-05-08T22:31:46.285Z,2.00
2023-05-08T22:34:14.260Z,4.00
2023-05-08T22:36:42.322Z,4.67
2023-05-08T22:39:10.291Z,4.00
2023-05-08T22:41:38.555Z,4.00
2023-05-08T22:44:06.532Z,7.00
2023-05-08T22:46:36.221Z,7.00
2023-05-08T22:49:04.840Z,3.50
2023-05-08T22:51:32.715Z,7.00
2023-05-08T22:56:28.941Z,6.00
2023-05-08T22:58:57.526Z,7.00
2023-05-08T23:01:25.634Z,6.00
2023-05-08T23:03:54.460Z,7.00
2023-05-08T23:06:22.460Z,8.50
2023-05-08T23:08:50.280Z,9.00
2023-05-08T23:11:18.283Z,7.00
2023-05-08T23:13:46.353Z,7.00
2023-05-08T23:16:14.446Z,6.00
2023-05-08T23:18:42.359Z,11.00
2023-05-08T23:21:10.774Z,4.00
2023-05-08T23:23:38.742Z,5.67
2023-05-08T23:26:06.911Z,6.00
2023-05-08T23:28:35.406Z,7.00
2023-05-08T23:31:03.900Z,6.50
2023-05-08T23:33:32.352Z,8.00
2023-05-08T23:36:00.728Z,11.50
2023-05-08T23:38:28.908Z,14.00
2023-05-08T23:40:56.769Z,13.00
2023-05-08T23:43:25.051Z,9.00
2023-05-08T23:45:52.840Z,10.00
2023-05-08T23:48:25.789Z,9.00
2023-05-08T23:50:53.746Z,9.00
2023-05-08T23:53:23.224Z,10.00
2023-05-08T23:55:52.332Z,7.00
2023-05-08T23:58:21.666Z,8.00
